sensor_id;sensor_type;location;lat;lon;timestamp;P1;durP1;ratioP1;P2;durP2;ratioP2
19436;SDS011;9854;50.968;4.168;2024-03-23T00:53:58;28.63;;;8.48;;
19436;SDS011;9854;50.968;4.168;2024-03-23T00:56:23;19.95;;;8.75;;
19436;SDS011;9854;50.968;4.168;2024-03-23T00:58:49;24.45;;;8.57;;
19436;SDS011;9854;50.968;4.168;2024-03-23T01:01:17;22.25;;;8.60;;
19436;SDS011;9854;50.968;4.168;2024-03-23T01:03:45;21.93;;;8.90;;
19436;SDS011;9854;50.968;4.168;2024-03-23T01:06:11;25.02;;;8.82;;
19436;SDS011;9854;50.968;4.168;2024-03-23T01:08:37;19.20;;;9.37;;
19436;SDS011;9854;50.968;4.168;2024-03-23T01:11:02;26.30;;;10.03;;
19436;SDS011;9854;50.968;4.168;2024-03-23T01:13:29;21.30;;;9.43;;
19436;SDS011;9854;50.968;4.168;2024-03-23T01:15:55;23.07;;;9.17;;
19436;SDS011;9854;50.968;4.168;2024-03-23T01:18:22;25.45;;;10.57;;
19436;SDS011;9854;50.968;4.168;2024-03-23T01:20:51;29.20;;;10.67;;
19436;SDS011;9854;50.968;4.168;2024-03-23T01:23:17;26.47;;;9.90;;
19436;SDS011;9854;50.968;4.168;2024-03-23T01:25:51;27.90;;;11.60;;
19436;SDS011;9854;50.968;4.168;2024-03-23T01:28:22;27.53;;;11.53;;
19436;SDS011;9854;50.968;4.168;2024-03-23T01:30:51;28.77;;;10.87;;
19436;SDS011;9854;50.968;4.168;2024-03-23T01:33:16;28.33;;;11.27;;
19436;SDS011;9854;50.968;4.168;2024-03-23T01:35:44;32.53;;;12.37;;
19436;SDS011;9854;50.968;4.168;2024-03-23T01:38:10;31.27;;;12.43;;
19436;SDS011;9854;50.968;4.168;2024-03-23T01:40:36;35.33;;;12.93;;
19436;SDS011;9854;50.968;4.168;2024-03-23T01:43:05;28.63;;;12.60;;
19436;SDS011;9854;50.968;4.168;2024-03-23T01:45:32;35.80;;;13.17;;
19436;SDS011;9854;50.968;4.168;2024-03-23T01:47:59;39.93;;;12.63;;
19436;SDS011;9854;50.968;4.168;2024-03-23T01:50:27;33.53;;;13.37;;
19436;SDS011;9854;50.968;4.168;2024-03-23T01:52:55;35.03;;;12.13;;
19436;SDS011;9854;50.968;4.168;2024-03-23T01:55:24;35.57;;;13.43;;
19436;SDS011;9854;50.968;4.168;2024-03-23T01:57:50;41.17;;;12.63;;
19436;SDS011;9854;50.968;4.168;2024-03-23T02:00:16;36.97;;;11.93;;
19436;SDS011;9854;50.968;4.168;2024-03-23T02:02:45;35.50;;;13.00;;
19436;SDS011;9854;50.968;4.168;2024-03-23T02:05:13;32.57;;;11.77;;
19436;SDS011;9854;50.968;4.168;2024-03-23T02:07:44;36.13;;;12.70;;
19436;SDS011;9854;50.968;4.168;2024-03-23T02:10:10;31.47;;;11.63;;
19436;SDS011;9854;50.968;4.168;2024-03-23T02:12:38;36.07;;;12.00;;
19436;SDS011;9854;50.968;4.168;2024-03-23T02:15:04;31.97;;;12.20;;
19436;SDS011;9854;50.968;4.168;2024-03-23T02:17:34;34.33;;;12.27;;
19436;SDS011;9854;50.968;4.168;2024-03-23T02:20:00;34.57;;;12.20;;
19436;SDS011;9854;50.968;4.168;2024-03-23T02:22:37;32.87;;;12.10;;
19436;SDS011;9854;50.968;4.168;2024-03-23T02:25:06;42.60;;;13.17;;
19436;SDS011;9854;50.968;4.168;2024-03-23T02:27:32;32.33;;;12.20;;
19436;SDS011;9854;50.968;4.168;2024-03-23T02:29:59;38.13;;;12.63;;
19436;SDS011;9854;50.968;4.168;2024-03-23T02:32:25;37.00;;;12.63;;
19436;SDS011;9854;50.968;4.168;2024-03-23T02:34:51;34.37;;;13.40;;
19436;SDS011;9854;50.968;4.168;2024-03-23T02:37:16;37.80;;;13.73;;
19436;SDS011;9854;50.968;4.168;2024-03-23T02:39:44;35.53;;;13.47;;
19436;SDS011;9854;50.968;4.168;2024-03-23T02:42:10;45.70;;;13.70;;
19436;SDS011;9854;50.968;4.168;2024-03-23T02:44:35;32.73;;;13.33;;
19436;SDS011;9854;50.968;4.168;2024-03-23T02:47:01;36.77;;;13.47;;
19436;SDS011;9854;50.968;4.168;2024-03-23T02:49:29;37.07;;;13.40;;
19436;SDS011;9854;50.968;4.168;2024-03-23T02:51:54;42.27;;;13.53;;
19436;SDS011;9854;50.968;4.168;2024-03-23T02:54:22;40.97;;;13.17;;
19436;SDS011;9854;50.968;4.168;2024-03-23T02:56:48;33.87;;;12.37;;
19436;SDS011;9854;50.968;4.168;2024-03-23T02:59:13;37.67;;;13.47;;
19436;SDS011;9854;50.968;4.168;2024-03-23T03:01:39;29.33;;;12.57;;
19436;SDS011;9854;50.968;4.168;2024-03-23T03:04:05;27.57;;;11.53;;
19436;SDS011;9854;50.968;4.168;2024-03-23T03:06:33;37.17;;;12.50;;
19436;SDS011;9854;50.968;4.168;2024-03-23T03:08:59;36.93;;;12.67;;
19436;SDS011;9854;50.968;4.168;2024-03-23T03:11:24;32.20;;;12.40;;
19436;SDS011;9854;50.968;4.168;2024-03-23T03:13:50;36.37;;;13.63;;
19436;SDS011;9854;50.968;4.168;2024-03-23T03:16:15;31.83;;;13.67;;
19436;SDS011;9854;50.968;4.168;2024-03-23T03:18:41;31.67;;;13.00;;
19436;SDS011;9854;50.968;4.168;2024-03-23T03:21:09;36.00;;;13.10;;
19436;SDS011;9854;50.968;4.168;2024-03-23T03:23:37;31.30;;;12.60;;
19436;SDS011;9854;50.968;4.168;2024-03-23T03:26:03;34.17;;;13.67;;
19436;SDS011;9854;50.968;4.168;2024-03-23T03:28:30;38.63;;;13.30;;
19436;SDS011;9854;50.968;4.168;2024-03-23T03:31:02;35.70;;;13.67;;
19436;SDS011;9854;50.968;4.168;2024-03-23T03:33:30;33.77;;;12.70;;
19436;SDS011;9854;50.968;4.168;2024-03-23T03:35:56;32.30;;;12.43;;
19436;SDS011;9854;50.968;4.168;2024-03-23T03:38:26;33.93;;;12.47;;
19436;SDS011;9854;50.968;4.168;2024-03-23T03:40:52;30.67;;;11.87;;
19436;SDS011;9854;50.968;4.168;2024-03-23T03:43:18;32.17;;;11.77;;
19436;SDS011;9854;50.968;4.168;2024-03-23T03:45:51;23.33;;;10.73;;
19436;SDS011;9854;50.968;4.168;2024-03-23T03:48:20;27.20;;;10.57;;
19436;SDS011;9854;50.968;4.168;2024-03-23T03:50:46;28.77;;;11.00;;
19436;SDS011;9854;50.968;4.168;2024-03-23T03:53:14;26.80;;;11.47;;
19436;SDS011;9854;50.968;4.168;2024-03-23T03:55:41;29.90;;;11.03;;
19436;SDS011;9854;50.968;4.168;2024-03-23T03:58:08;27.00;;;10.63;;
19436;SDS011;9854;50.968;4.168;2024-03-23T04:00:34;22.77;;;9.87;;
19436;SDS011;9854;50.968;4.168;2024-03-23T04:03:00;27.30;;;9.50;;
19436;SDS011;9854;50.968;4.168;2024-03-23T04:05:26;24.47;;;9.43;;
19436;SDS011;9854;50.968;4.168;2024-03-23T04:07:52;30.30;;;9.63;;
19436;SDS011;9854;50.968;4.168;2024-03-23T04:10:19;26.97;;;10.00;;
19436;SDS011;9854;50.968;4.168;2024-03-23T04:12:45;25.20;;;9.57;;
19436;SDS011;9854;50.968;4.168;2024-03-23T04:15:11;28.10;;;9.73;;
19436;SDS011;9854;50.968;4.168;2024-03-23T04:17:36;24.10;;;9.40;;
19436;SDS011;9854;50.968;4.168;2024-03-23T04:20:02;20.90;;;9.40;;
19436;SDS011;9854;50.968;4.168;2024-03-23T04:22:30;23.73;;;9.07;;
19436;SDS011;9854;50.968;4.168;2024-03-23T04:24:58;26.20;;;8.33;;
19436;SDS011;9854;50.968;4.168;2024-03-23T04:27:24;24.53;;;8.13;;
19436;SDS011;9854;50.968;4.168;2024-03-23T04:29:52;19.30;;;7.50;;
19436;SDS011;9854;50.968;4.168;2024-03-23T04:32:23;18.97;;;7.13;;
19436;SDS011;9854;50.968;4.168;2024-03-23T04:34:51;28.23;;;7.73;;
19436;SDS011;9854;50.968;4.168;2024-03-23T04:37:17;18.23;;;7.30;;
19436;SDS011;9854;50.968;4.168;2024-03-23T04:39:43;19.17;;;6.93;;
19436;SDS011;9854;50.968;4.168;2024-03-23T04:42:08;24.47;;;7.67;;
19436;SDS011;9854;50.968;4.168;2024-03-23T04:44:34;26.53;;;8.17;;
19436;SDS011;9854;50.968;4.168;2024-03-23T04:47:00;18.07;;;7.00;;
19436;SDS011;9854;50.968;4.168;2024-03-23T04:49:28;22.80;;;7.10;;
19436;SDS011;9854;50.968;4.168;2024-03-23T04:51:54;20.77;;;6.50;;
19436;SDS011;9854;50.968;4.168;2024-03-23T04:54:19;21.93;;;7.00;;
19436;SDS011;9854;50.968;4.168;2024-03-23T04:56:50;22.87;;;7.23;;
19436;SDS011;9854;50.968;4.168;2024-03-23T04:59:15;19.33;;;7.03;;
19436;SDS011;9854;50.968;4.168;2024-03-23T05:01:43;18.07;;;6.17;;
19436;SDS011;9854;50.968;4.168;2024-03-23T05:04:09;16.30;;;6.80;;
19436;SDS011;9854;50.968;4.168;2024-03-23T05:06:35;17.87;;;6.77;;
19436;SDS011;9854;50.968;4.168;2024-03-23T05:09:00;23.67;;;7.00;;
19436;SDS011;9854;50.968;4.168;2024-03-23T05:11:35;23.03;;;7.13;;
19436;SDS011;9854;50.968;4.168;2024-03-23T05:14:01;17.17;;;6.80;;
19436;SDS011;9854;50.968;4.168;2024-03-23T05:16:28;20.00;;;8.13;;
19436;SDS011;9854;50.968;4.168;2024-03-23T05:18:53;20.13;;;7.60;;
19436;SDS011;9854;50.968;4.168;2024-03-23T05:21:19;24.07;;;7.80;;
19436;SDS011;9854;50.968;4.168;2024-03-23T05:23:47;24.00;;;7.80;;
19436;SDS011;9854;50.968;4.168;2024-03-23T05:26:15;21.40;;;8.07;;
19436;SDS011;9854;50.968;4.168;2024-03-23T05:28:41;23.00;;;7.97;;
19436;SDS011;9854;50.968;4.168;2024-03-23T05:31:09;19.73;;;7.27;;
19436;SDS011;9854;50.968;4.168;2024-03-23T05:33:35;23.63;;;6.67;;
19436;SDS011;9854;50.968;4.168;2024-03-23T05:36:04;20.43;;;8.07;;
19436;SDS011;9854;50.968;4.168;2024-03-23T05:38:30;21.37;;;7.00;;
19436;SDS011;9854;50.968;4.168;2024-03-23T05:40:59;20.30;;;6.23;;
19436;SDS011;9854;50.968;4.168;2024-03-23T05:43:25;17.60;;;6.27;;
19436;SDS011;9854;50.968;4.168;2024-03-23T05:45:56;23.27;;;6.87;;
19436;SDS011;9854;50.968;4.168;2024-03-23T05:48:23;15.53;;;5.47;;
19436;SDS011;9854;50.968;4.168;2024-03-23T05:50:49;19.50;;;6.20;;
19436;SDS011;9854;50.968;4.168;2024-03-23T05:53:15;22.67;;;6.35;;
19436;SDS011;9854;50.968;4.168;2024-03-23T05:55:45;13.07;;;5.30;;
19436;SDS011;9854;50.968;4.168;2024-03-23T05:58:12;15.83;;;5.43;;
19436;SDS011;9854;50.968;4.168;2024-03-23T06:00:39;16.60;;;5.65;;
19436;SDS011;9854;50.968;4.168;2024-03-23T06:03:05;16.63;;;6.33;;
19436;SDS011;9854;50.968;4.168;2024-03-23T06:05:31;20.17;;;5.60;;
19436;SDS011;9854;50.968;4.168;2024-03-23T06:07:57;17.83;;;4.73;;
19436;SDS011;9854;50.968;4.168;2024-03-23T06:10:24;17.37;;;4.77;;
19436;SDS011;9854;50.968;4.168;2024-03-23T06:12:50;24.13;;;5.07;;
19436;SDS011;9854;50.968;4.168;2024-03-23T06:15:17;22.73;;;4.77;;
19436;SDS011;9854;50.968;4.168;2024-03-23T06:17:47;22.47;;;4.60;;
19436;SDS011;9854;50.968;4.168;2024-03-23T06:20:13;19.17;;;5.55;;
19436;SDS011;9854;50.968;4.168;2024-03-23T06:22:39;17.67;;;4.50;;
19436;SDS011;9854;50.968;4.168;2024-03-23T06:25:05;20.13;;;4.27;;
19436;SDS011;9854;50.968;4.168;2024-03-23T06:27:32;18.07;;;4.93;;
19436;SDS011;9854;50.968;4.168;2024-03-23T06:29:58;19.55;;;5.28;;
19436;SDS011;9854;50.968;4.168;2024-03-23T06:32:27;22.63;;;4.83;;
19436;SDS011;9854;50.968;4.168;2024-03-23T06:34:54;17.60;;;5.13;;
19436;SDS011;9854;50.968;4.168;2024-03-23T06:37:19;21.53;;;4.47;;
19436;SDS011;9854;50.968;4.168;2024-03-23T06:39:45;17.37;;;4.63;;
19436;SDS011;9854;50.968;4.168;2024-03-23T06:42:12;19.83;;;4.73;;
19436;SDS011;9854;50.968;4.168;2024-03-23T06:44:37;21.13;;;5.33;;
19436;SDS011;9854;50.968;4.168;2024-03-23T06:47:08;19.53;;;4.63;;
19436;SDS011;9854;50.968;4.168;2024-03-23T06:49:39;15.60;;;3.63;;
19436;SDS011;9854;50.968;4.168;2024-03-23T06:52:07;18.97;;;4.20;;
19436;SDS011;9854;50.968;4.168;2024-03-23T06:54:35;17.03;;;4.37;;
19436;SDS011;9854;50.968;4.168;2024-03-23T06:57:00;16.53;;;4.63;;
19436;SDS011;9854;50.968;4.168;2024-03-23T06:59:26;22.57;;;4.40;;
19436;SDS011;9854;50.968;4.168;2024-03-23T07:01:54;13.83;;;3.80;;
19436;SDS011;9854;50.968;4.168;2024-03-23T07:04:22;11.77;;;3.73;;
19436;SDS011;9854;50.968;4.168;2024-03-23T07:06:47;11.13;;;3.67;;
19436;SDS011;9854;50.968;4.168;2024-03-23T07:09:13;10.27;;;3.37;;
19436;SDS011;9854;50.968;4.168;2024-03-23T07:11:39;16.73;;;3.83;;
19436;SDS011;9854;50.968;4.168;2024-03-23T07:14:04;12.00;;;3.73;;
19436;SDS011;9854;50.968;4.168;2024-03-23T07:16:30;16.30;;;4.30;;
19436;SDS011;9854;50.968;4.168;2024-03-23T07:19:00;9.67;;;3.40;;
19436;SDS011;9854;50.968;4.168;2024-03-23T07:21:26;11.30;;;4.10;;
19436;SDS011;9854;50.968;4.168;2024-03-23T07:23:52;14.60;;;4.70;;
19436;SDS011;9854;50.968;4.168;2024-03-23T07:26:17;13.97;;;4.57;;
19436;SDS011;9854;50.968;4.168;2024-03-23T07:28:43;15.40;;;4.17;;
19436;SDS011;9854;50.968;4.168;2024-03-23T07:31:11;14.93;;;4.53;;
19436;SDS011;9854;50.968;4.168;2024-03-23T07:33:45;24.70;;;5.27;;
19436;SDS011;9854;50.968;4.168;2024-03-23T07:36:11;20.03;;;4.87;;
19436;SDS011;9854;50.968;4.168;2024-03-23T07:38:40;23.27;;;5.43;;
19436;SDS011;9854;50.968;4.168;2024-03-23T07:41:10;15.73;;;5.20;;
19436;SDS011;9854;50.968;4.168;2024-03-23T07:43:39;16.57;;;4.90;;
19436;SDS011;9854;50.968;4.168;2024-03-23T07:46:05;15.93;;;4.73;;
19436;SDS011;9854;50.968;4.168;2024-03-23T07:48:31;21.07;;;5.00;;
19436;SDS011;9854;50.968;4.168;2024-03-23T07:50:58;20.83;;;5.47;;
19436;SDS011;9854;50.968;4.168;2024-03-23T07:53:24;18.53;;;4.73;;
19436;SDS011;9854;50.968;4.168;2024-03-23T07:55:56;17.13;;;4.83;;
19436;SDS011;9854;50.968;4.168;2024-03-23T07:58:23;19.57;;;4.77;;
19436;SDS011;9854;50.968;4.168;2024-03-23T08:00:49;16.63;;;4.07;;
19436;SDS011;9854;50.968;4.168;2024-03-23T08:03:14;16.13;;;4.50;;
19436;SDS011;9854;50.968;4.168;2024-03-23T08:05:42;16.07;;;4.13;;
19436;SDS011;9854;50.968;4.168;2024-03-23T08:08:08;21.13;;;4.57;;
19436;SDS011;9854;50.968;4.168;2024-03-23T08:10:34;16.67;;;4.40;;
19436;SDS011;9854;50.968;4.168;2024-03-23T08:13:01;20.13;;;4.70;;
19436;SDS011;9854;50.968;4.168;2024-03-23T08:15:30;16.23;;;4.03;;
19436;SDS011;9854;50.968;4.168;2024-03-23T08:17:58;15.47;;;4.03;;
19436;SDS011;9854;50.968;4.168;2024-03-23T08:20:24;21.10;;;4.20;;
19436;SDS011;9854;50.968;4.168;2024-03-23T08:22:50;10.17;;;3.50;;
19436;SDS011;9854;50.968;4.168;2024-03-23T08:25:15;11.33;;;3.70;;
19436;SDS011;9854;50.968;4.168;2024-03-23T08:27:41;15.33;;;3.90;;
19436;SDS011;9854;50.968;4.168;2024-03-23T08:30:09;20.30;;;3.77;;
19436;SDS011;9854;50.968;4.168;2024-03-23T08:32:36;17.50;;;4.70;;
19436;SDS011;9854;50.968;4.168;2024-03-23T08:35:01;13.70;;;3.50;;
19436;SDS011;9854;50.968;4.168;2024-03-23T08:37:27;14.43;;;4.17;;
19436;SDS011;9854;50.968;4.168;2024-03-23T08:39:58;14.67;;;4.10;;
19436;SDS011;9854;50.968;4.168;2024-03-23T08:42:24;21.57;;;4.60;;
19436;SDS011;9854;50.968;4.168;2024-03-23T08:44:49;14.97;;;4.03;;
19436;SDS011;9854;50.968;4.168;2024-03-23T08:47:17;20.87;;;4.33;;
19436;SDS011;9854;50.968;4.168;2024-03-23T08:49:44;12.37;;;3.80;;
19436;SDS011;9854;50.968;4.168;2024-03-23T08:52:12;20.10;;;3.47;;
19436;SDS011;9854;50.968;4.168;2024-03-23T08:54:37;14.70;;;4.07;;
19436;SDS011;9854;50.968;4.168;2024-03-23T08:57:03;21.10;;;3.77;;
19436;SDS011;9854;50.968;4.168;2024-03-23T08:59:29;16.43;;;3.83;;
19436;SDS011;9854;50.968;4.168;2024-03-23T09:01:54;12.87;;;3.10;;
19436;SDS011;9854;50.968;4.168;2024-03-23T09:04:21;13.83;;;3.30;;
19436;SDS011;9854;50.968;4.168;2024-03-23T09:06:46;12.43;;;3.37;;
19436;SDS011;9854;50.968;4.168;2024-03-23T09:09:12;15.40;;;3.50;;
19436;SDS011;9854;50.968;4.168;2024-03-23T09:11:38;16.37;;;3.50;;
19436;SDS011;9854;50.968;4.168;2024-03-23T09:14:03;14.55;;;3.42;;
19436;SDS011;9854;50.968;4.168;2024-03-23T09:16:29;12.27;;;3.17;;
19436;SDS011;9854;50.968;4.168;2024-03-23T09:18:55;9.37;;;3.50;;
19436;SDS011;9854;50.968;4.168;2024-03-23T09:21:21;13.60;;;3.30;;
19436;SDS011;9854;50.968;4.168;2024-03-23T09:23:49;10.93;;;3.33;;
19436;SDS011;9854;50.968;4.168;2024-03-23T09:26:17;12.48;;;3.10;;
19436;SDS011;9854;50.968;4.168;2024-03-23T09:28:43;16.08;;;3.63;;
19436;SDS011;9854;50.968;4.168;2024-03-23T09:31:08;13.98;;;3.60;;
19436;SDS011;9854;50.968;4.168;2024-03-23T09:33:40;11.50;;;3.10;;
19436;SDS011;9854;50.968;4.168;2024-03-23T09:36:06;13.73;;;3.85;;
19436;SDS011;9854;50.968;4.168;2024-03-23T09:38:35;13.82;;;3.13;;
19436;SDS011;9854;50.968;4.168;2024-03-23T09:41:06;10.47;;;2.83;;
19436;SDS011;9854;50.968;4.168;2024-03-23T09:43:35;12.83;;;3.33;;
19436;SDS011;9854;50.968;4.168;2024-03-23T09:46:02;10.00;;;2.77;;
19436;SDS011;9854;50.968;4.168;2024-03-23T09:48:30;9.95;;;3.13;;
19436;SDS011;9854;50.968;4.168;2024-03-23T09:50:56;9.47;;;2.60;;
19436;SDS011;9854;50.968;4.168;2024-03-23T09:53:22;11.27;;;2.73;;
19436;SDS011;9854;50.968;4.168;2024-03-23T09:55:48;9.63;;;2.83;;
19436;SDS011;9854;50.968;4.168;2024-03-23T09:58:14;10.10;;;3.00;;
19436;SDS011;9854;50.968;4.168;2024-03-23T10:00:41;10.27;;;3.00;;
19436;SDS011;9854;50.968;4.168;2024-03-23T10:03:07;9.63;;;3.38;;
19436;SDS011;9854;50.968;4.168;2024-03-23T10:05:35;10.67;;;3.40;;
19436;SDS011;9854;50.968;4.168;2024-03-23T10:08:16;8.70;;;3.30;;
19436;SDS011;9854;50.968;4.168;2024-03-23T10:10:44;10.57;;;3.20;;
19436;SDS011;9854;50.968;4.168;2024-03-23T10:13:10;11.02;;;4.70;;
19436;SDS011;9854;50.968;4.168;2024-03-23T10:15:48;9.23;;;3.95;;
19436;SDS011;9854;50.968;4.168;2024-03-23T10:18:23;12.05;;;4.68;;
19436;SDS011;9854;50.968;4.168;2024-03-23T10:23:34;11.97;;;5.13;;
19436;SDS011;9854;50.968;4.168;2024-03-23T10:28:52;9.27;;;4.60;;
19436;SDS011;9854;50.968;4.168;2024-03-23T10:31:28;10.87;;;4.70;;
19436;SDS011;9854;50.968;4.168;2024-03-23T10:33:57;14.23;;;5.00;;
19436;SDS011;9854;50.968;4.168;2024-03-23T10:36:24;13.23;;;4.07;;
19436;SDS011;9854;50.968;4.168;2024-03-23T10:38:53;7.63;;;3.93;;
19436;SDS011;9854;50.968;4.168;2024-03-23T10:41:19;9.63;;;4.20;;
19436;SDS011;9854;50.968;4.168;2024-03-23T10:43:46;8.30;;;3.90;;
19436;SDS011;9854;50.968;4.168;2024-03-23T10:46:13;11.90;;;4.20;;
19436;SDS011;9854;50.968;4.168;2024-03-23T10:48:42;9.87;;;4.93;;
19436;SDS011;9854;50.968;4.168;2024-03-23T10:51:09;16.17;;;5.60;;
19436;SDS011;9854;50.968;4.168;2024-03-23T10:53:35;16.47;;;5.97;;
19436;SDS011;9854;50.968;4.168;2024-03-23T10:56:04;11.27;;;5.50;;
19436;SDS011;9854;50.968;4.168;2024-03-23T11:01:17;14.20;;;5.70;;
19436;SDS011;9854;50.968;4.168;2024-03-23T11:03:47;10.00;;;4.57;;
19436;SDS011;9854;50.968;4.168;2024-03-23T11:09:38;11.00;;;4.07;;
19436;SDS011;9854;50.968;4.168;2024-03-23T11:12:49;6.23;;;3.50;;
19436;SDS011;9854;50.968;4.168;2024-03-23T11:17:19;7.27;;;2.80;;
19436;SDS011;9854;50.968;4.168;2024-03-23T11:19:58;9.27;;;3.10;;
19436;SDS011;9854;50.968;4.168;2024-03-23T11:27:52;12.27;;;3.67;;
19436;SDS011;9854;50.968;4.168;2024-03-23T11:30:19;6.47;;;2.37;;
19436;SDS011;9854;50.968;4.168;2024-03-23T11:32:58;7.57;;;2.20;;
19436;SDS011;9854;50.968;4.168;2024-03-23T11:40:43;5.87;;;1.90;;
19436;SDS011;9854;50.968;4.168;2024-03-23T11:43:17;7.83;;;2.43;;
19436;SDS011;9854;50.968;4.168;2024-03-23T11:48:16;7.90;;;2.13;;
19436;SDS011;9854;50.968;4.168;2024-03-23T11:50:47;9.43;;;1.88;;
19436;SDS011;9854;50.968;4.168;2024-03-23T11:53:19;6.93;;;2.30;;
19436;SDS011;9854;50.968;4.168;2024-03-23T11:55:46;9.37;;;1.90;;
19436;SDS011;9854;50.968;4.168;2024-03-23T11:58:13;7.82;;;1.70;;
19436;SDS011;9854;50.968;4.168;2024-03-23T12:00:40;7.32;;;1.92;;
19436;SDS011;9854;50.968;4.168;2024-03-23T12:03:05;9.70;;;2.55;;
19436;SDS011;9854;50.968;4.168;2024-03-23T12:05:32;6.97;;;2.20;;
19436;SDS011;9854;50.968;4.168;2024-03-23T12:11:10;5.78;;;1.48;;
19436;SDS011;9854;50.968;4.168;2024-03-23T12:13:37;4.80;;;1.63;;
19436;SDS011;9854;50.968;4.168;2024-03-23T12:16:18;5.97;;;1.60;;
19436;SDS011;9854;50.968;4.168;2024-03-23T12:18:46;7.45;;;2.03;;
19436;SDS011;9854;50.968;4.168;2024-03-23T12:21:13;4.25;;;1.50;;
19436;SDS011;9854;50.968;4.168;2024-03-23T12:23:39;7.32;;;1.42;;
19436;SDS011;9854;50.968;4.168;2024-03-23T12:26:05;10.25;;;2.33;;
19436;SDS011;9854;50.968;4.168;2024-03-23T12:28:31;6.25;;;1.88;;
19436;SDS011;9854;50.968;4.168;2024-03-23T12:30:57;5.97;;;1.77;;
19436;SDS011;9854;50.968;4.168;2024-03-23T12:33:25;6.40;;;1.80;;
19436;SDS011;9854;50.968;4.168;2024-03-23T12:35:53;9.23;;;2.15;;
19436;SDS011;9854;50.968;4.168;2024-03-23T12:38:19;9.90;;;2.17;;
19436;SDS011;9854;50.968;4.168;2024-03-23T12:40:48;8.82;;;2.60;;
19436;SDS011;9854;50.968;4.168;2024-03-23T12:43:14;7.57;;;2.00;;
19436;SDS011;9854;50.968;4.168;2024-03-23T12:45:42;8.77;;;2.25;;
19436;SDS011;9854;50.968;4.168;2024-03-23T12:48:12;8.15;;;2.63;;
19436;SDS011;9854;50.968;4.168;2024-03-23T12:50:40;7.35;;;2.47;;
19436;SDS011;9854;50.968;4.168;2024-03-23T12:53:06;8.75;;;2.30;;
19436;SDS011;9854;50.968;4.168;2024-03-23T12:55:32;13.15;;;3.22;;
19436;SDS011;9854;50.968;4.168;2024-03-23T12:57:59;10.90;;;2.55;;
19436;SDS011;9854;50.968;4.168;2024-03-23T13:00:28;9.93;;;3.33;;
19436;SDS011;9854;50.968;4.168;2024-03-23T13:02:55;8.40;;;3.20;;
19436;SDS011;9854;50.968;4.168;2024-03-23T13:05:21;10.17;;;2.50;;
19436;SDS011;9854;50.968;4.168;2024-03-23T13:07:47;7.27;;;2.23;;
19436;SDS011;9854;50.968;4.168;2024-03-23T13:10:12;8.67;;;2.10;;
19436;SDS011;9854;50.968;4.168;2024-03-23T13:12:39;8.23;;;2.30;;
19436;SDS011;9854;50.968;4.168;2024-03-23T13:15:05;8.40;;;2.40;;
19436;SDS011;9854;50.968;4.168;2024-03-23T13:17:31;5.55;;;1.75;;
19436;SDS011;9854;50.968;4.168;2024-03-23T13:19:56;8.35;;;2.28;;
19436;SDS011;9854;50.968;4.168;2024-03-23T13:22:22;8.00;;;2.07;;
19436;SDS011;9854;50.968;4.168;2024-03-23T13:24:48;3.95;;;1.90;;
19436;SDS011;9854;50.968;4.168;2024-03-23T13:27:13;5.53;;;1.87;;
19436;SDS011;9854;50.968;4.168;2024-03-23T13:29:41;5.33;;;1.80;;
19436;SDS011;9854;50.968;4.168;2024-03-23T13:32:07;9.33;;;2.10;;
19436;SDS011;9854;50.968;4.168;2024-03-23T13:34:34;5.17;;;1.73;;
19436;SDS011;9854;50.968;4.168;2024-03-23T13:37:00;8.30;;;2.20;;
19436;SDS011;9854;50.968;4.168;2024-03-23T13:39:26;9.73;;;2.53;;
19436;SDS011;9854;50.968;4.168;2024-03-23T13:41:54;5.03;;;2.27;;
19436;SDS011;9854;50.968;4.168;2024-03-23T13:44:20;9.50;;;2.97;;
19436;SDS011;9854;50.968;4.168;2024-03-23T13:46:51;6.03;;;2.37;;
19436;SDS011;9854;50.968;4.168;2024-03-23T13:49:29;6.97;;;2.53;;
19436;SDS011;9854;50.968;4.168;2024-03-23T13:52:01;7.03;;;2.63;;
19436;SDS011;9854;50.968;4.168;2024-03-23T13:54:27;9.90;;;2.47;;
19436;SDS011;9854;50.968;4.168;2024-03-23T13:56:53;8.82;;;2.70;;
19436;SDS011;9854;50.968;4.168;2024-03-23T13:59:22;8.40;;;3.00;;
19436;SDS011;9854;50.968;4.168;2024-03-23T14:01:48;6.60;;;2.53;;
19436;SDS011;9854;50.968;4.168;2024-03-23T14:04:16;7.80;;;2.58;;
19436;SDS011;9854;50.968;4.168;2024-03-23T14:06:42;11.48;;;2.83;;
19436;SDS011;9854;50.968;4.168;2024-03-23T14:09:11;6.93;;;2.42;;
19436;SDS011;9854;50.968;4.168;2024-03-23T14:11:37;8.73;;;2.70;;
19436;SDS011;9854;50.968;4.168;2024-03-23T14:14:06;7.20;;;2.65;;
19436;SDS011;9854;50.968;4.168;2024-03-23T14:16:33;9.55;;;2.08;;
19436;SDS011;9854;50.968;4.168;2024-03-23T14:19:00;5.78;;;1.65;;
19436;SDS011;9854;50.968;4.168;2024-03-23T14:21:26;4.70;;;1.70;;
19436;SDS011;9854;50.968;4.168;2024-03-23T14:23:54;7.18;;;1.80;;
19436;SDS011;9854;50.968;4.168;2024-03-23T14:26:20;5.63;;;1.70;;
19436;SDS011;9854;50.968;4.168;2024-03-23T14:28:46;6.85;;;1.70;;
19436;SDS011;9854;50.968;4.168;2024-03-23T14:31:12;4.72;;;1.35;;
19436;SDS011;9854;50.968;4.168;2024-03-23T14:33:38;6.00;;;1.90;;
19436;SDS011;9854;50.968;4.168;2024-03-23T14:36:11;7.03;;;2.05;;
19436;SDS011;9854;50.968;4.168;2024-03-23T14:38:37;6.68;;;1.90;;
19436;SDS011;9854;50.968;4.168;2024-03-23T14:41:05;7.50;;;2.22;;
19436;SDS011;9854;50.968;4.168;2024-03-23T14:43:33;4.53;;;1.75;;
19436;SDS011;9854;50.968;4.168;2024-03-23T14:46:11;4.68;;;1.70;;
19436;SDS011;9854;50.968;4.168;2024-03-23T14:48:39;6.20;;;1.77;;
19436;SDS011;9854;50.968;4.168;2024-03-23T14:51:06;5.45;;;1.50;;
19436;SDS011;9854;50.968;4.168;2024-03-23T14:53:36;3.67;;;1.60;;
19436;SDS011;9854;50.968;4.168;2024-03-23T14:56:05;7.40;;;2.00;;
19436;SDS011;9854;50.968;4.168;2024-03-23T14:58:32;4.22;;;1.77;;
19436;SDS011;9854;50.968;4.168;2024-03-23T15:01:07;6.65;;;2.20;;
19436;SDS011;9854;50.968;4.168;2024-03-23T15:03:36;5.75;;;1.92;;
19436;SDS011;9854;50.968;4.168;2024-03-23T15:06:04;5.93;;;1.67;;
19436;SDS011;9854;50.968;4.168;2024-03-23T15:08:30;4.78;;;1.50;;
19436;SDS011;9854;50.968;4.168;2024-03-23T15:10:58;6.63;;;1.77;;
19436;SDS011;9854;50.968;4.168;2024-03-23T15:13:25;4.80;;;1.77;;
19436;SDS011;9854;50.968;4.168;2024-03-23T15:15:51;4.80;;;1.55;;
19436;SDS011;9854;50.968;4.168;2024-03-23T15:18:19;7.32;;;1.77;;
19436;SDS011;9854;50.968;4.168;2024-03-23T15:20:57;4.63;;;1.65;;
19436;SDS011;9854;50.968;4.168;2024-03-23T15:23:31;7.38;;;2.25;;
19436;SDS011;9854;50.968;4.168;2024-03-23T15:26:00;8.30;;;1.85;;
19436;SDS011;9854;50.968;4.168;2024-03-23T15:28:29;6.10;;;1.80;;
19436;SDS011;9854;50.968;4.168;2024-03-23T15:31:09;9.18;;;1.98;;
19436;SDS011;9854;50.968;4.168;2024-03-23T15:33:35;5.47;;;2.03;;
19436;SDS011;9854;50.968;4.168;2024-03-23T15:36:04;5.53;;;1.90;;
19436;SDS011;9854;50.968;4.168;2024-03-23T15:38:33;8.70;;;2.30;;
19436;SDS011;9854;50.968;4.168;2024-03-23T15:40:59;6.13;;;2.03;;
19436;SDS011;9854;50.968;4.168;2024-03-23T15:43:27;7.68;;;2.05;;
19436;SDS011;9854;50.968;4.168;2024-03-23T15:45:53;6.53;;;2.05;;
19436;SDS011;9854;50.968;4.168;2024-03-23T15:48:24;5.80;;;2.05;;
19436;SDS011;9854;50.968;4.168;2024-03-23T15:50:56;6.18;;;1.88;;
19436;SDS011;9854;50.968;4.168;2024-03-23T15:53:25;8.23;;;2.00;;
19436;SDS011;9854;50.968;4.168;2024-03-23T15:55:55;5.50;;;2.00;;
19436;SDS011;9854;50.968;4.168;2024-03-23T15:58:21;7.90;;;2.47;;
19436;SDS011;9854;50.968;4.168;2024-03-23T16:00:57;8.13;;;2.47;;
19436;SDS011;9854;50.968;4.168;2024-03-23T16:03:25;8.30;;;1.92;;
19436;SDS011;9854;50.968;4.168;2024-03-23T16:05:56;12.30;;;2.67;;
19436;SDS011;9854;50.968;4.168;2024-03-23T16:08:23;12.63;;;2.70;;
19436;SDS011;9854;50.968;4.168;2024-03-23T16:10:52;6.05;;;2.35;;
19436;SDS011;9854;50.968;4.168;2024-03-23T16:13:19;8.73;;;2.20;;
19436;SDS011;9854;50.968;4.168;2024-03-23T16:15:45;5.43;;;1.75;;